Time;durP1;ratioP1;P1;durP2;ratioP2;P2;SDS_P1;SDS_P2;PMS_P1;PMS_P2;Temp;Humidity;BMP_temperature;BMP_pressure;BME280_temperature;BME280_humidity;BME280_pressure;Samples;Min_cycle;Max_cycle;Signal;HPM_P1;HPM_P2
2021/04/27 00:01:33;;;;;;;2.05;1.88;;;;;;;14.34;37.45;98713.88;6242916;23;20085;-76
2021/04/27 00:03:58;;;;;;;4.35;2.58;;;;;;;14.35;37.25;98703.88;6243547;23;20460;-79
2021/04/27 00:06:24;;;;;;;2.63;2.03;;;;;;;14.34;37.43;98702.28;6216500;23;20513;-76
2021/04/27 00:08:49;;;;;;;3.38;2.10;;;;;;;14.32;37.66;98705.31;6241706;23;20011;-76
2021/04/27 00:11:15;;;;;;;2.53;2.03;;;;;;;14.36;37.59;98702.78;6243627;23;20086;-79
2021/04/27 00:13:41;;;;;;;2.20;1.95;;;;;;;14.34;37.16;98707.69;6216703;23;20031;-78
2021/04/27 00:16:08;;;;;;;2.63;2.03;;;;;;;14.32;37.28;98704.50;6216640;23;20015;-78
2021/04/27 00:18:33;;;;;;;2.80;1.92;;;;;;;14.32;37.16;98707.19;6216199;23;20008;-77
2021/04/27 00:20:59;;;;;;;3.05;2.03;;;;;;;14.31;37.19;98719.84;6216310;23;20383;-80
2021/04/27 00:23:25;;;;;;;2.13;2.00;;;;;;;14.29;37.21;98715.88;6216381;23;19996;-81
2021/04/27 00:25:50;;;;;;;3.25;1.98;;;;;;;14.29;37.16;98713.19;6242164;23;20000;-79
2021/04/27 00:28:15;;;;;;;2.65;2.25;;;;;;;14.29;37.10;98713.97;6216627;23;20004;-82
2021/04/27 00:30:41;;;;;;;2.45;2.08;;;;;;;14.28;37.28;98715.09;6241772;23;20083;-79
2021/04/27 00:33:06;;;;;;;3.30;2.90;;;;;;;14.27;37.21;98721.59;6216690;23;20332;-77
2021/04/27 00:35:32;;;;;;;2.30;2.10;;;;;;;14.27;37.41;98712.69;6216488;23;20007;-78
2021/04/27 00:37:58;;;;;;;3.25;2.28;;;;;;;14.25;37.58;98696.88;6217218;23;20007;-80
2021/04/27 00:40:24;;;;;;;3.75;2.00;;;;;;;14.24;37.55;98711.44;6243696;23;20014;-77
2021/04/27 00:42:50;;;;;;;2.05;1.85;;;;;;;14.23;37.35;98709.84;6219106;23;20385;-81
2021/04/27 00:45:21;;;;;;;1.67;1.58;;;;;;;14.23;37.92;98718.72;6218523;23;20333;-82
2021/04/27 00:47:47;;;;;;;2.83;1.77;;;;;;;14.21;37.60;98709.38;6243474;23;20034;-82
2021/04/27 00:50:16;;;;;;;3.55;2.30;;;;;;;14.20;37.76;98724.69;6216302;23;20008;-81
2021/04/27 00:52:46;;;;;;;2.42;2.22;;;;;;;14.21;37.81;98720.91;6217899;23;20939;-79
2021/04/27 00:55:14;;;;;;;4.97;2.17;;;;;;;14.20;38.26;98727.38;6218197;23;20441;-78
2021/04/27 00:57:41;;;;;;;2.40;2.15;;;;;;;14.22;38.15;98733.25;6242993;23;20091;-77
2021/04/27 01:00:16;;;;;;;3.75;2.28;;;;;;;14.20;38.27;98731.97;6243818;23;20032;-81
2021/04/27 01:02:41;;;;;;;2.38;2.05;;;;;;;14.17;38.54;98722.63;6218167;23;20501;-81
2021/04/27 01:05:12;;;;;;;1.92;1.83;;;;;;;14.16;38.66;98726.41;6218489;23;20006;-76
2021/04/27 01:07:47;;;;;;;2.55;2.30;;;;;;;14.12;38.81;98725.44;6217831;23;20413;-77
2021/04/27 01:10:20;;;;;;;2.65;2.05;;;;;;;14.13;38.28;98740.47;6243301;23;20027;-76
2021/04/27 01:12:58;;;;;;;4.38;2.67;;;;;;;14.13;38.11;98718.16;6218063;23;20031;-75
2021/04/27 01:15:27;;;;;;;3.55;2.20;;;;;;;14.13;37.96;98721.66;6245186;23;20083;-76
2021/04/27 01:17:55;;;;;;;4.55;1.85;;;;;;;14.13;37.81;98724.34;6217973;23;20428;-76
2021/04/27 01:20:32;;;;;;;3.45;2.70;;;;;;;14.13;37.64;98724.34;6217874;23;20376;-75
2021/04/27 01:23:02;;;;;;;2.05;1.95;;;;;;;14.14;37.41;98722.44;6243247;23;20325;-77
2021/04/27 01:25:35;;;;;;;2.20;2.00;;;;;;;14.14;37.88;98723.25;6242706;23;20066;-74
2021/04/27 01:28:03;;;;;;;4.63;2.13;;;;;;;14.13;37.92;98720.88;6244647;23;20003;-74
2021/04/27 01:30:31;;;;;;;4.25;2.42;;;;;;;14.17;37.82;98721.81;6244598;23;20337;-75
2021/04/27 01:32:57;;;;;;;2.40;1.90;;;;;;;14.18;38.00;98736.88;6243653;23;20032;-81
2021/04/27 01:35:22;;;;;;;2.80;2.20;;;;;;;14.18;37.83;98728.78;6218474;23;20003;-82
2021/04/27 01:37:49;;;;;;;3.38;2.28;;;;;;;14.17;37.83;98729.91;6243153;23;20398;-82
2021/04/27 01:40:15;;;;;;;2.90;2.25;;;;;;;14.19;38.33;98731.16;6217850;23;20032;-86
2021/04/27 01:42:40;;;;;;;3.33;1.65;;;;;;;14.19;38.07;98727.69;6217892;23;20000;-81
2021/04/27 01:45:07;;;;;;;2.85;2.10;;;;;;;14.18;38.66;98724.19;6218356;23;20007;-81
2021/04/27 01:47:34;;;;;;;2.35;2.15;;;;;;;14.19;39.42;98730.38;6217641;23;20000;-88
2021/04/27 01:50:00;;;;;;;2.70;2.05;;;;;;;14.16;39.66;98742.56;6216934;23;20010;-86
2021/04/27 01:52:25;;;;;;;2.60;2.25;;;;;;;14.14;39.83;98730.53;6217718;23;20090;-81
2021/04/27 01:54:51;;;;;;;2.30;2.10;;;;;;;14.11;40.23;98725.75;6243029;23;20004;-77
2021/04/27 01:57:18;;;;;;;2.38;2.03;;;;;;;14.08;40.47;98724.47;6242904;23;20012;-85
2021/04/27 01:59:46;;;;;;;2.70;2.10;;;;;;;14.02;40.15;98725.69;6217382;23;20000;-89
2021/04/27 02:02:12;;;;;;;3.33;2.20;;;;;;;14.02;40.60;98715.72;6193343;23;20000;-88
2021/04/27 02:04:37;;;;;;;4.32;2.35;;;;;;;13.99;40.11;98716.34;6242458;23;19996;-81
2021/04/27 02:07:03;;;;;;;2.20;1.90;;;;;;;13.99;39.81;98720.91;6217563;23;19996;-81
2021/04/27 02:09:30;;;;;;;2.88;1.98;;;;;;;13.99;40.25;98710.16;6242290;23;20329;-91
2021/04/27 02:11:56;;;;;;;3.05;1.90;;;;;;;13.98;40.32;98720.13;6217005;23;19996;-87
2021/04/27 02:14:27;;;;;;;4.05;3.20;;;;;;;13.96;39.57;98713.47;6217160;23;20007;-86
2021/04/27 02:17:17;;;;;;;2.40;2.13;;;;;;;13.93;39.33;98706.81;6217098;23;20429;-89
2021/04/27 02:19:45;;;;;;;3.08;2.10;;;;;;;13.90;39.63;98708.22;6217633;23;20027;-85
2021/04/27 02:22:11;;;;;;;3.80;2.30;;;;;;;13.90;39.84;98707.44;6217454;23;20010;-83
2021/04/27 02:24:38;;;;;;;3.03;2.38;;;;;;;13.86;39.76;98693.81;6216868;23;20087;-86
2021/04/27 02:27:05;;;;;;;4.72;1.75;;;;;;;13.86;39.57;98699.19;6242482;23;20087;-87
2021/04/27 02:29:33;;;;;;;2.85;1.83;;;;;;;13.87;39.01;98689.22;6240122;23;20004;-82
2021/04/27 02:32:00;;;;;;;2.58;1.90;;;;;;;13.85;39.38;98689.53;6214557;23;20000;-82
2021/04/27 02:34:26;;;;;;;3.25;2.17;;;;;;;13.86;39.02;98679.56;6213984;23;20012;-82
2021/04/27 02:36:53;;;;;;;2.97;2.35;;;;;;;13.86;39.12;98674.97;6213802;23;20004;-83
2021/04/27 02:39:20;;;;;;;3.80;2.30;;;;;;;13.86;39.47;98674.97;6216920;23;20429;-77
2021/04/27 02:41:45;;;;;;;2.45;2.20;;;;;;;13.85;39.33;98677.97;6217205;23;20004;-76
2021/04/27 02:44:11;;;;;;;3.22;2.53;;;;;;;13.86;39.26;98674.19;6244146;23;20032;-78
2021/04/27 02:46:37;;;;;;;2.70;2.22;;;;;;;13.88;39.28;98674.69;6217100;23;20004;-75
2021/04/27 02:49:04;;;;;;;2.80;1.90;;;;;;;13.88;39.53;98675.47;6217321;23;20354;-78
2021/04/27 02:51:30;;;;;;;3.35;1.98;;;;;;;13.89;39.37;98676.25;6216685;23;20007;-77
2021/04/27 02:53:55;;;;;;;3.45;2.17;;;;;;;13.90;39.36;98678.66;6216926;23;20004;-76
2021/04/27 02:56:21;;;;;;;2.95;2.10;;;;;;;13.88;39.45;98680.84;6216950;23;19996;-81
2021/04/27 02:58:46;;;;;;;3.15;2.38;;;;;;;13.91;39.46;98684.81;6216996;23;20031;-77
2021/04/27 03:01:13;;;;;;;2.58;2.30;;;;;;;13.88;39.68;98674.69;6217287;23;20433;-77
2021/04/27 03:03:39;;;;;;;2.75;2.15;;;;;;;13.90;39.97;98678.66;6243693;23;20531;-80
2021/04/27 03:06:05;;;;;;;2.22;2.00;;;;;;;13.90;39.76;98673.28;6217437;23;20394;-79
2021/04/27 03:08:31;;;;;;;1.92;1.77;;;;;;;13.91;39.48;98666.00;6217319;23;20000;-80
2021/04/27 03:10:56;;;;;;;3.40;1.98;;;;;;;13.92;39.36;98662.22;6216937;23;20426;-82
2021/04/27 03:13:22;;;;;;;3.13;1.88;;;;;;;13.92;39.61;98660.31;6217212;23;19996;-82
2021/04/27 03:15:48;;;;;;;3.42;2.50;;;;;;;13.92;39.59;98671.06;6216449;23;20461;-75
2021/04/27 03:18:13;;;;;;;3.95;2.63;;;;;;;13.91;39.55;98664.13;6216777;23;20004;-74
2021/04/27 03:20:42;;;;;;;5.75;2.45;;;;;;;13.95;38.95;98660.81;6243104;23;20018;-76
2021/04/27 03:23:07;;;;;;;2.40;2.20;;;;;;;13.96;39.04;98665.09;6243299;23;19996;-77
2021/04/27 03:25:33;;;;;;;2.30;2.10;;;;;;;13.96;38.99;98659.72;6216674;23;20007;-76
2021/04/27 03:27:58;;;;;;;3.40;2.33;;;;;;;13.98;38.96;98657.53;6243404;23;20000;-81
2021/04/27 03:30:24;;;;;;;3.45;2.58;;;;;;;13.99;39.14;98659.09;6217119;23;20015;-78
2021/04/27 03:32:49;;;;;;;5.25;2.17;;;;;;;14.01;39.01;98665.75;6216576;23;20421;-77
2021/04/27 03:35:15;;;;;;;4.38;2.78;;;;;;;14.04;39.37;98664.34;6216514;23;20000;-77
2021/04/27 03:37:41;;;;;;;3.15;1.80;;;;;;;14.06;39.03;98657.56;6216003;23;20005;-76
2021/04/27 03:40:09;;;;;;;3.50;2.40;;;;;;;14.07;38.58;98651.09;6241994;23;19999;-75
2021/04/27 03:42:34;;;;;;;5.32;2.45;;;;;;;14.06;38.55;98649.50;6242757;23;20019;-78
2021/04/27 03:45:00;;;;;;;2.65;2.33;;;;;;;14.08;38.34;98659.94;6216320;23;20029;-79
2021/04/27 03:47:25;;;;;;;3.38;2.17;;;;;;;14.10;38.29;98652.34;6216483;23;20028;-83
2021/04/27 03:49:51;;;;;;;3.45;2.40;;;;;;;14.11;38.26;98655.84;6216425;23;20011;-81
2021/04/27 03:52:16;;;;;;;6.00;2.83;;;;;;;14.12;38.17;98668.97;6216543;23;20000;-80
2021/04/27 03:54:42;;;;;;;4.70;2.70;;;;;;;14.14;38.41;98645.25;6216286;23;20001;-77
2021/04/27 03:57:07;;;;;;;2.03;1.92;;;;;;;14.17;37.97;98641.16;6203500;23;20446;-79
2021/04/27 03:59:33;;;;;;;2.28;1.98;;;;;;;14.18;37.63;98653.50;6182237;23;20005;-80
2021/04/27 04:01:59;;;;;;;2.25;1.98;;;;;;;14.16;38.22;98664.56;6206177;23;20004;-77
2021/04/27 04:04:24;;;;;;;2.53;2.33;;;;;;;14.18;38.23;98658.88;6206381;23;20009;-78
2021/04/27 04:06:50;;;;;;;4.53;2.70;;;;;;;14.17;38.54;98665.34;6206359;23;20155;-80
2021/04/27 04:09:15;;;;;;;3.75;2.58;;;;;;;14.17;38.64;98658.09;6183055;23;20004;-78
2021/04/27 04:11:41;;;;;;;4.13;2.58;;;;;;;14.17;38.29;98668.03;6180874;23;20005;-78
2021/04/27 04:14:06;;;;;;;2.78;2.50;;;;;;;14.18;38.80;98667.72;6208236;23;20011;-78
2021/04/27 04:16:32;;;;;;;3.88;3.00;;;;;;;14.18;38.69;98672.31;6208594;23;19997;-83
2021/04/27 04:18:58;;;;;;;2.70;2.35;;;;;;;14.19;39.58;98679.28;6207823;23;20058;-80
2021/04/27 04:21:24;;;;;;;5.03;2.45;;;;;;;14.18;39.93;98691.16;6207935;23;20316;-76
2021/04/27 04:23:54;;;;;;;4.13;2.65;;;;;;;14.21;40.47;98695.91;6183214;23;20059;-77
2021/04/27 04:26:19;;;;;;;4.75;2.72;;;;;;;14.21;40.34;98683.25;6182790;23;20449;-77
2021/04/27 04:28:45;;;;;;;6.63;2.83;;;;;;;14.20;39.51;98697.03;6184379;23;20001;-77
2021/04/27 04:31:10;;;;;;;3.50;3.03;;;;;;;14.20;39.93;98705.88;6208311;23;20028;-75
2021/04/27 04:33:36;;;;;;;4.15;3.10;;;;;;;14.20;39.97;98691.63;6207704;23;20056;-77
2021/04/27 04:36:02;;;;;;;3.47;2.88;;;;;;;14.23;40.16;98702.56;6184886;23;19997;-76
2021/04/27 04:38:27;;;;;;;3.80;3.20;;;;;;;14.23;40.42;98702.56;6184593;23;20080;-76
2021/04/27 04:40:53;;;;;;;4.68;3.55;;;;;;;14.22;40.32;98698.28;6182939;23;20124;-76
2021/04/27 04:43:19;;;;;;;6.13;4.05;;;;;;;14.23;40.18;98702.56;6182578;23;20005;-76
2021/04/27 04:45:44;;;;;;;7.70;3.65;;;;;;;14.25;40.68;98711.09;6182702;23;20041;-76
2021/04/27 04:48:11;;;;;;;4.22;3.33;;;;;;;14.27;41.04;98708.13;6184709;23;20004;-76
2021/04/27 04:50:36;;;;;;;7.55;4.15;;;;;;;14.29;41.22;98705.91;6184566;23;20085;-76
2021/04/27 04:53:03;;;;;;;10.48;4.60;;;;;;;14.34;41.16;98705.00;6184526;23;20005;-76
2021/04/27 04:55:29;;;;;;;5.90;3.10;;;;;;;14.36;41.17;98702.78;6184953;23;20012;-76
2021/04/27 04:57:55;;;;;;;5.57;3.15;;;;;;;14.45;41.54;98708.22;6218634;23;20012;-76
2021/04/27 05:00:22;;;;;;;6.05;3.13;;;;;;;14.54;41.46;98714.44;6244782;23;20075;-76
2021/04/27 05:02:47;;;;;;;4.03;2.97;;;;;;;14.64;41.45;98724.91;6217922;23;20007;-76
2021/04/27 05:05:14;;;;;;;4.38;3.33;;;;;;;14.78;41.82;98716.78;6245288;23;20000;-76
2021/04/27 05:07:44;;;;;;;4.63;2.75;;;;;;;14.89;41.52;98707.28;6244776;23;20004;-76
2021/04/27 05:10:16;;;;;;;3.80;3.00;;;;;;;15.12;41.76;98712.56;6244897;23;20530;-76
2021/04/27 05:12:42;;;;;;;4.10;3.20;;;;;;;15.28;41.44;98712.91;6242906;23;20372;-75
2021/04/27 05:15:11;;;;;;;6.07;3.58;;;;;;;15.43;41.37;98714.34;6245018;23;20004;-75
2021/04/27 05:17:36;;;;;;;7.95;3.20;;;;;;;15.57;41.00;98722.28;6217898;23;20342;-75
2021/04/27 05:20:03;;;;;;;5.40;3.50;;;;;;;15.64;41.12;98722.59;6244739;23;20054;-75
2021/04/27 05:22:29;;;;;;;6.65;3.38;;;;;;;15.67;41.36;98724.66;6244707;23;20441;-75
2021/04/27 05:24:55;;;;;;;9.10;4.78;;;;;;;15.74;41.67;98731.47;6244131;23;20000;-75
2021/04/27 05:27:21;;;;;;;8.52;6.25;;;;;;;15.76;41.69;98730.06;6244768;23;20000;-75
2021/04/27 05:29:46;;;;;;;5.43;3.60;;;;;;;15.79;42.08;98731.31;6243045;23;20052;-75
2021/04/27 05:32:12;;;;;;;6.97;3.60;;;;;;;15.82;42.09;98719.91;6245099;23;20000;-78
2021/04/27 05:34:38;;;;;;;6.05;3.17;;;;;;;15.85;41.91;98711.19;6243190;23;20027;-75
2021/04/27 05:37:04;;;;;;;4.43;3.17;;;;;;;15.91;41.73;98720.69;6217642;23;20000;-75
2021/04/27 05:39:30;;;;;;;7.30;3.22;;;;;;;15.97;41.15;98724.03;6244860;23;20441;-75
2021/04/27 05:41:55;;;;;;;8.88;3.92;;;;;;;15.99;40.88;98730.69;6217380;23;20000;-75
2021/04/27 05:44:21;;;;;;;8.20;4.60;;;;;;;16.01;40.76;98724.97;6217707;23;20057;-75
2021/04/27 05:46:46;;;;;;;9.77;5.00;;;;;;;16.05;41.83;98723.25;6217434;23;20436;-75
2021/04/27 05:49:12;;;;;;;8.43;3.80;;;;;;;16.10;42.81;98724.94;6244441;23;19996;-74
2021/04/27 05:51:37;;;;;;;5.40;4.13;;;;;;;16.13;43.55;98718.94;6244366;23;20006;-75
2021/04/27 05:54:04;;;;;;;4.63;3.42;;;;;;;16.21;44.06;98731.63;6244745;23;20000;-76
2021/04/27 05:56:30;;;;;;;5.50;4.65;;;;;;;16.24;44.27;98722.06;6217543;23;20000;-76
2021/04/27 05:58:55;;;;;;;6.00;4.20;;;;;;;16.31;44.50;98723.16;6242495;23;20016;-76
2021/04/27 06:01:21;;;;;;;5.45;3.67;;;;;;;16.45;44.51;98725.69;6244746;23;20417;-77
2021/04/27 06:03:47;;;;;;;5.95;3.47;;;;;;;16.62;44.19;98732.09;6244333;23;20023;-77
2021/04/27 06:06:12;;;;;;;4.13;3.75;;;;;;;16.75;44.13;98728.41;6244415;23;20421;-76
2021/04/27 06:08:38;;;;;;;5.57;3.67;;;;;;;16.86;44.32;98728.81;6244377;23;20006;-75
2021/04/27 06:11:06;;;;;;;10.80;4.35;;;;;;;17.00;43.88;98725.13;6244099;23;20010;-76
2021/04/27 06:13:32;;;;;;;6.53;3.78;;;;;;;17.13;43.19;98724.88;6217439;23;20080;-76
2021/04/27 06:15:57;;;;;;;3.42;2.97;;;;;;;17.24;43.23;98717.19;6244196;23;20000;-76
2021/04/27 06:18:23;;;;;;;6.97;3.83;;;;;;;17.35;42.37;98706.00;6244147;23;20449;-75
2021/04/27 06:20:48;;;;;;;5.53;3.40;;;;;;;17.41;41.78;98704.69;6244058;23;20000;-76
2021/04/27 06:23:14;;;;;;;4.10;3.15;;;;;;;17.44;41.70;98721.03;6244426;23;20004;-76
2021/04/27 06:25:39;;;;;;;6.85;4.55;;;;;;;17.46;41.64;98719.91;6244355;23;20053;-75
2021/04/27 06:28:05;;;;;;;4.72;3.63;;;;;;;17.47;41.81;98718.78;6243493;23;20038;-75
2021/04/27 06:30:30;;;;;;;6.10;4.38;;;;;;;17.47;41.32;98718.78;6242548;23;20004;-76
2021/04/27 06:32:55;;;;;;;4.75;4.25;;;;;;;17.46;41.83;98709.88;6242342;23;20000;-77
2021/04/27 06:35:21;;;;;;;3.67;3.38;;;;;;;17.41;43.97;98708.16;6243484;23;20000;-75
2021/04/27 06:37:47;;;;;;;4.30;3.90;;;;;;;17.06;45.77;98694.88;6243322;23;20001;-75
2021/04/27 06:40:14;;;;;;;5.15;3.65;;;;;;;16.81;46.96;98692.00;6242449;23;20484;-76
2021/04/27 06:42:40;;;;;;;5.28;3.47;;;;;;;16.58;47.73;98686.06;6216878;23;20008;-74
2021/04/27 06:45:06;;;;;;;3.72;3.30;;;;;;;16.39;47.58;98677.59;6243637;23;20001;-75
2021/04/27 06:47:31;;;;;;;5.70;3.55;;;;;;;16.27;47.77;98692.56;6217035;23;20000;-75
2021/04/27 06:49:58;;;;;;;4.10;3.10;;;;;;;16.21;47.64;98688.44;6243302;23;20000;-75
2021/04/27 06:52:24;;;;;;;9.10;4.47;;;;;;;16.17;47.81;98669.41;6243998;23;19999;-75
2021/04/27 06:54:50;;;;;;;5.90;3.70;;;;;;;16.22;48.17;98668.44;6243258;23;20003;-76
2021/04/27 06:57:15;;;;;;;6.03;3.67;;;;;;;16.33;47.93;98685.88;6241963;23;20081;-78
2021/04/27 06:59:41;;;;;;;4.95;3.45;;;;;;;16.49;48.38;98678.03;6243524;23;20380;-76
2021/04/27 07:02:08;;;;;;;7.53;3.50;;;;;;;16.63;47.47;98677.00;6243574;23;20054;-75
2021/04/27 07:04:35;;;;;;;6.97;4.32;;;;;;;16.79;46.54;98680.72;6243358;23;19999;-76
2021/04/27 07:07:01;;;;;;;4.07;3.67;;;;;;;16.90;45.94;98678.44;6243502;23;20000;-75
2021/04/27 07:09:26;;;;;;;6.53;3.95;;;;;;;17.01;46.31;98678.09;6243600;23;20003;-75
2021/04/27 07:11:52;;;;;;;7.93;4.20;;;;;;;17.14;46.96;98693.28;6216444;23;20436;-75
2021/04/27 07:14:17;;;;;;;3.65;3.10;;;;;;;17.29;45.43;98695.38;6243341;23;19997;-75
2021/04/27 07:16:43;;;;;;;6.57;4.05;;;;;;;17.42;45.34;98700.88;6243299;23;19996;-75
2021/04/27 07:19:08;;;;;;;4.70;3.85;;;;;;;17.51;44.89;98706.19;6242854;23;20509;-76
2021/04/27 07:21:34;;;;;;;7.60;3.70;;;;;;;17.66;44.79;98708.28;6243715;23;20004;-77
2021/04/27 07:24:00;;;;;;;6.30;3.95;;;;;;;17.78;44.45;98696.72;6243391;23;20448;-77
2021/04/27 07:26:26;;;;;;;6.57;3.58;;;;;;;17.86;44.94;98692.38;6242031;23;20028;-77
2021/04/27 07:28:52;;;;;;;6.35;3.90;;;;;;;17.92;44.12;98686.41;6243192;23;20329;-76
2021/04/27 07:31:18;;;;;;;6.45;4.03;;;;;;;17.97;43.19;98695.47;6243588;23;20007;-76
2021/04/27 07:33:43;;;;;;;6.70;4.10;;;;;;;18.00;43.45;98697.50;6216675;23;20078;-76
2021/04/27 07:36:09;;;;;;;7.18;3.63;;;;;;;18.08;42.88;98680.41;6243815;23;20059;-76
2021/04/27 07:38:35;;;;;;;3.92;3.20;;;;;;;18.10;43.65;98664.59;6243552;23;20004;-76
2021/04/27 07:41:00;;;;;;;7.82;3.85;;;;;;;18.09;44.46;98671.16;6243044;23;20054;-76
2021/04/27 07:43:26;;;;;;;6.85;3.75;;;;;;;18.19;44.88;98667.25;6243043;23;19999;-76
2021/04/27 07:45:51;;;;;;;7.85;3.78;;;;;;;18.17;42.96;98664.06;6243144;23;20035;-76
2021/04/27 07:48:17;;;;;;;5.38;3.35;;;;;;;18.29;42.54;98672.19;6243303;23;20000;-77
2021/04/27 07:50:43;;;;;;;4.32;3.90;;;;;;;18.47;42.55;98680.91;6243447;23;20022;-77
2021/04/27 07:53:08;;;;;;;7.85;3.97;;;;;;;18.59;43.79;98672.00;6243165;23;20000;-76
2021/04/27 07:55:34;;;;;;;9.32;4.20;;;;;;;18.56;43.07;98668.03;6243346;23;20007;-76
2021/04/27 07:57:59;;;;;;;5.30;4.35;;;;;;;18.63;42.50;98674.81;6242842;23;20012;-76
2021/04/27 08:00:25;;;;;;;4.75;3.67;;;;;;;18.68;42.95;98667.25;6241795;23;20062;-76
2021/04/27 08:02:51;;;;;;;12.27;4.68;;;;;;;18.80;43.12;98666.47;6243089;23;20034;-77
2021/04/27 08:05:20;;;;;;;10.35;4.22;;;;;;;18.91;43.10;98660.56;6243476;23;20417;-76
2021/04/27 08:07:45;;;;;;;6.10;4.00;;;;;;;19.05;41.94;98661.03;6216346;23;20008;-77
2021/04/27 08:10:14;;;;;;;6.63;3.83;;;;;;;19.08;40.56;98656.84;6243382;23;19996;-77
2021/04/27 08:12:45;;;;;;;10.20;4.07;;;;;;;19.13;40.23;98662.03;6243330;23;20000;-75
2021/04/27 08:15:13;;;;;;;6.05;3.58;;;;;;;19.15;40.20;98657.06;6243037;23;20038;-75
2021/04/27 08:17:40;;;;;;;6.40;4.05;;;;;;;19.11;39.87;98650.75;6241604;23;20007;-77
2021/04/27 08:20:08;;;;;;;7.10;3.65;;;;;;;19.08;39.48;98654.13;6241385;23;20886;-76
2021/04/27 08:22:34;;;;;;;4.90;3.30;;;;;;;19.02;39.39;98654.38;6243283;23;20079;-75
2021/04/27 08:24:59;;;;;;;4.50;3.80;;;;;;;19.02;38.50;98645.47;6242892;23;20027;-75
2021/04/27 08:27:25;;;;;;;3.78;2.83;;;;;;;18.98;37.73;98629.09;6243199;23;19996;-75
2021/04/27 08:29:52;;;;;;;4.68;3.00;;;;;;;19.10;37.79;98641.81;6243043;23;19996;-75
2021/04/27 08:32:18;;;;;;;6.25;3.28;;;;;;;19.11;37.53;98640.69;6243213;23;19996;-75
2021/04/27 08:34:44;;;;;;;4.95;2.55;;;;;;;19.08;36.72;98637.88;6243243;23;20093;-77
2021/04/27 08:37:09;;;;;;;3.63;2.78;;;;;;;19.14;37.18;98634.59;6242819;23;20325;-75
2021/04/27 08:39:34;;;;;;;7.07;3.08;;;;;;;19.17;37.57;98635.81;6216265;23;20039;-75
2021/04/27 08:42:01;;;;;;;7.72;3.65;;;;;;;19.24;38.17;98621.66;6242957;23;19996;-75
2021/04/27 08:44:26;;;;;;;4.25;2.78;;;;;;;19.33;36.82;98620.41;6243056;23;20008;-75
2021/04/27 08:46:52;;;;;;;6.93;2.78;;;;;;;19.35;36.80;98628.19;6242871;23;20004;-76
2021/04/27 08:49:17;;;;;;;4.20;3.33;;;;;;;19.36;36.86;98617.00;6243178;23;19996;-76
2021/04/27 08:51:43;;;;;;;3.83;2.60;;;;;;;19.43;36.36;98616.44;6243187;23;20003;-75
2021/04/27 08:54:09;;;;;;;2.75;2.55;;;;;;;19.44;36.36;98623.41;6242259;23;20071;-76
2021/04/27 08:56:34;;;;;;;3.03;2.72;;;;;;;19.50;36.08;98608.47;6242452;23;20024;-76
2021/04/27 08:59:00;;;;;;;3.53;2.65;;;;;;;19.59;36.19;98602.91;6243769;23;20000;-76
2021/04/27 09:01:26;;;;;;;3.00;2.67;;;;;;;19.70;36.00;98603.19;6244962;23;20380;-76
2021/04/27 09:03:54;;;;;;;8.20;2.50;;;;;;;19.76;35.65;98609.13;6244193;23;20452;-76
2021/04/27 09:06:22;;;;;;;5.70;2.80;;;;;;;19.81;34.80;98611.56;6244854;23;19996;-76
2021/04/27 09:08:50;;;;;;;3.22;2.90;;;;;;;19.87;35.61;98599.34;6244237;23;20485;-76
2021/04/27 09:11:35;;;;;;;5.13;2.70;;;;;;;19.95;36.05;98589.50;6244979;23;20010;-76
2021/04/27 09:14:19;;;;;;;6.90;2.95;;;;;;;19.97;34.50;98587.22;6244193;23;20000;-76
2021/04/27 09:16:48;;;;;;;5.93;3.10;;;;;;;20.03;32.16;98593.16;6244570;23;20429;-75
2021/04/27 09:19:27;;;;;;;;;;;;;;;20.08;31.30;98588.25;6245004;23;20170;-75
2021/04/27 09:22:01;;;;;;;6.25;2.17;;;;;;;20.09;30.45;98584.41;6242894;23;19930;-76
2021/04/27 09:24:27;;;;;;;5.03;2.35;;;;;;;20.18;29.93;98580.72;6245074;23;20000;-76
2021/04/27 09:26:53;;;;;;;2.42;2.22;;;;;;;20.21;29.37;98577.31;6217511;23;20377;-76
2021/04/27 09:29:32;;;;;;;2.17;1.83;;;;;;;20.28;29.45;98575.53;6244040;23;20023;-76
2021/04/27 09:31:58;;;;;;;3.70;2.20;;;;;;;20.33;28.66;98573.72;6217447;23;20057;-75
2021/04/27 09:34:33;;;;;;;2.85;2.25;;;;;;;20.36;28.66;98567.56;6244812;23;20320;-76
2021/04/27 09:37:06;;;;;;;5.00;2.08;;;;;;;20.37;29.31;98558.28;6244017;23;20111;-76
2021/04/27 09:39:47;;;;;;;2.20;1.75;;;;;;;20.42;27.32;98542.50;6243129;23;20095;-77
2021/04/27 09:42:14;;;;;;;2.00;1.85;;;;;;;20.50;30.12;98542.66;6244349;23;19997;-77
2021/04/27 09:44:45;;;;;;;3.28;2.20;;;;;;;20.53;31.88;98548.19;6244570;23;20452;-77
2021/04/27 09:47:33;;;;;;;3.17;2.83;;;;;;;20.57;31.63;98535.44;6217456;23;20011;-77
2021/04/27 09:50:03;;;;;;;6.00;2.30;;;;;;;20.52;30.73;98508.56;6244285;23;20000;-77
2021/04/27 09:52:32;;;;;;;3.90;2.70;;;;;;;20.54;31.88;98514.41;6244529;23;20345;-76
2021/04/27 09:55:02;;;;;;;5.45;2.67;;;;;;;20.47;32.23;98517.78;6242259;23;20004;-77
2021/04/27 09:57:30;;;;;;;2.55;2.33;;;;;;;20.50;32.96;98520.94;6242409;23;20352;-77
2021/04/27 10:00:15;;;;;;;2.78;2.35;;;;;;;20.52;33.01;98514.00;6242650;23;20011;-77
2021/04/27 10:02:41;;;;;;;4.95;2.47;;;;;;;20.55;33.89;98496.19;6217157;23;20476;-77
2021/04/27 10:05:07;;;;;;;5.35;2.50;;;;;;;20.60;30.06;98515.72;6242296;23;20004;-77
2021/04/27 10:07:34;;;;;;;2.42;1.70;;;;;;;20.62;29.61;98516.16;6217361;23;20334;-77
2021/04/27 10:09:59;;;;;;;2.30;2.10;;;;;;;20.66;27.94;98510.00;6243029;23;20004;-76
2021/04/27 10:12:25;;;;;;;2.03;1.92;;;;;;;20.76;27.26;98510.25;6217460;23;20471;-77
2021/04/27 10:14:50;;;;;;;2.17;1.98;;;;;;;20.87;26.25;98515.13;6242236;23;20011;-77
2021/04/27 10:17:17;;;;;;;4.57;2.15;;;;;;;20.94;25.60;98502.44;6243720;23;20028;-77
2021/04/27 10:19:42;;;;;;;2.38;2.15;;;;;;;21.05;26.70;98488.28;6217325;23;20035;-77
2021/04/27 10:22:10;;;;;;;2.30;1.95;;;;;;;21.16;27.67;98485.78;6243790;23;20000;-77
2021/04/27 10:24:38;;;;;;;7.57;2.45;;;;;;;21.25;27.74;98481.66;6216592;23;20008;-77
2021/04/27 10:27:04;;;;;;;3.78;2.42;;;;;;;21.35;25.73;98496.59;6243378;23;20400;-77
2021/04/27 10:29:29;;;;;;;1.73;1.58;;;;;;;21.41;24.22;98497.88;6243845;23;20384;-76
2021/04/27 10:32:16;;;;;;;3.05;2.05;;;;;;;21.45;23.70;98495.22;6243622;23;19996;-76
2021/04/27 10:34:57;;;;;;;2.03;1.63;;;;;;;21.49;23.34;98489.84;6242521;23;20031;-76
2021/04/27 10:37:28;;;;;;;1.90;1.45;;;;;;;21.51;23.36;98493.75;6242414;23;20255;-76
2021/04/27 10:39:53;;;;;;;2.63;2.08;;;;;;;21.50;22.70;98492.19;6216997;23;19996;-76
2021/04/27 10:42:31;;;;;;;2.05;1.85;;;;;;;21.54;22.81;98492.25;6216841;23;20000;-76
2021/04/27 10:44:59;;;;;;;2.10;1.42;;;;;;;21.53;22.06;98491.47;6243498;23;20003;-78
2021/04/27 10:47:27;;;;;;;2.38;1.80;;;;;;;21.59;22.72;98491.97;6243966;23;20004;-76
2021/04/27 10:49:55;;;;;;;2.57;1.90;;;;;;;21.74;23.50;98496.50;6243713;23;20438;-78
2021/04/27 10:52:34;;;;;;;4.50;2.08;;;;;;;21.89;22.80;98497.50;6242308;23;20026;-75
2021/04/27 10:55:25;;;;;;;2.30;2.08;;;;;;;22.04;21.80;98495.00;6216665;23;20000;-78
2021/04/27 10:57:51;;;;;;;4.93;2.00;;;;;;;22.18;21.91;98487.06;6243872;23;20015;-78
2021/04/27 11:00:43;;;;;;;1.92;1.60;;;;;;;22.33;20.03;98493.47;6216673;23;20436;-78
2021/04/27 11:03:23;;;;;;;1.95;1.75;;;;;;;22.38;20.55;98485.00;6235871;23;20004;-78
2021/04/27 11:06:08;;;;;;;2.63;1.67;;;;;;;22.53;20.43;98486.00;6243812;23;20075;-78
2021/04/27 11:08:57;;;;;;;3.85;1.67;;;;;;;22.64;19.69;98468.97;6243864;23;20003;-78
2021/04/27 11:11:30;;;;;;;1.90;1.60;;;;;;;22.76;19.27;98476.91;6242060;23;20038;-79
2021/04/27 11:14:21;;;;;;;1.95;1.65;;;;;;;22.84;19.48;98469.63;6243594;23;20004;-78
2021/04/27 11:16:57;;;;;;;1.45;1.35;;;;;;;22.87;19.45;98463.41;6227088;23;20000;-77
2021/04/27 11:19:26;;;;;;;2.08;1.67;;;;;;;22.89;18.69;98466.56;6243673;23;19996;-78
2021/04/27 11:21:54;;;;;;;2.00;1.85;;;;;;;22.85;18.98;98455.59;6243585;23;19996;-78
2021/04/27 11:24:32;;;;;;;1.90;1.50;;;;;;;22.90;19.23;98450.97;6244178;23;20000;-77
2021/04/27 11:26:58;;;;;;;1.42;1.33;;;;;;;22.84;18.94;98453.25;6216784;23;20011;-77
2021/04/27 11:29:26;;;;;;;1.40;1.30;;;;;;;22.84;19.07;98455.97;6243592;23;19996;-78
2021/04/27 11:32:04;;;;;;;1.48;1.10;;;;;;;22.80;19.35;98447.78;6216888;23;19996;-77
2021/04/27 11:34:31;;;;;;;2.10;1.55;;;;;;;22.74;19.14;98443.81;6243615;23;20046;-77
2021/04/27 11:36:59;;;;;;;4.60;1.30;;;;;;;22.71;18.51;98436.38;6241841;23;20072;-78